Jump to content

stickfloat

Members
  • Content count

    9
  • Joined

  • Last visited

Community Reputation

0 Neutral

About stickfloat

Profile Information

  • Gender
    Male
  • Location
    sutton-in-ashfield, Midlands
  • Interests
    Music, aviation and Weather!

Contact Methods

Single Status Update

See all updates by stickfloat

  1. METAR EGNX 291050Z 27008KT 240V300 9999 SCT035 17/06 Q1022 - Bit boring today :/

×